Garske, North Dakota
Current Conditions -  °F | °C
As of 6:15 AM on Saturday 25 Oct 2014 (Local Time) from KDVL Reporting Station
Clear Clear  
Wind Chill: 35°   Ceiling: Unl
Heat Index: 41°   Visibility: 10mi
Dew Point: 28°   Wind: 10mph
Humidity: 61%   Direction: 280°W
Pressure: 30.03"   Gusts: NA
Location:  48.3263°N, 98.8756°W
Report Text: KDVL 251115Z AUTO 28009KT 10SM CLR 05/M02 A3003 RMK AO1
Loading
Personal Weather Stations






























Interactive Weather Map
Tropical Storm Tracking
New forecast layout! Learn more

10-Day Weather Forecast

Advertisements
Track Severe Weather on mobile